sensor_id;sensor_type;location;lat;lon;timestamp;P1;durP1;ratioP1;P2;durP2;ratioP2
66639;SDS011;53549;52.164;5.604;2023-03-23T00:01:03;2.67;;;1.80;;
66639;SDS011;53549;52.164;5.604;2023-03-23T00:03:29;2.58;;;2.00;;
66639;SDS011;53549;52.164;5.604;2023-03-23T00:05:56;2.15;;;1.90;;
66639;SDS011;53549;52.164;5.604;2023-03-23T00:08:24;3.80;;;2.33;;
66639;SDS011;53549;52.164;5.604;2023-03-23T00:10:51;2.03;;;1.63;;
66639;SDS011;53549;52.164;5.604;2023-03-23T00:13:25;2.63;;;1.85;;
66639;SDS011;53549;52.164;5.604;2023-03-23T00:15:52;1.92;;;1.73;;
66639;SDS011;53549;52.164;5.604;2023-03-23T00:18:20;2.65;;;2.08;;
66639;SDS011;53549;52.164;5.604;2023-03-23T00:20:46;3.38;;;1.85;;
66639;SDS011;53549;52.164;5.604;2023-03-23T00:23:15;2.20;;;1.58;;
66639;SDS011;53549;52.164;5.604;2023-03-23T00:25:46;3.88;;;2.40;;
66639;SDS011;53549;52.164;5.604;2023-03-23T00:28:13;2.10;;;1.70;;
66639;SDS011;53549;52.164;5.604;2023-03-23T00:30:39;1.65;;;1.48;;
66639;SDS011;53549;52.164;5.604;2023-03-23T00:33:06;2.90;;;1.65;;
66639;SDS011;53549;52.164;5.604;2023-03-23T00:35:32;1.67;;;1.30;;
66639;SDS011;53549;52.164;5.604;2023-03-23T00:37:58;2.90;;;1.95;;
66639;SDS011;53549;52.164;5.604;2023-03-23T00:40:24;2.13;;;1.75;;
66639;SDS011;53549;52.164;5.604;2023-03-23T00:42:49;2.00;;;1.40;;
66639;SDS011;53549;52.164;5.604;2023-03-23T00:45:15;2.67;;;1.67;;
66639;SDS011;53549;52.164;5.604;2023-03-23T00:47:41;1.80;;;1.70;;
66639;SDS011;53549;52.164;5.604;2023-03-23T00:50:11;1.90;;;1.70;;
66639;SDS011;53549;52.164;5.604;2023-03-23T00:52:38;2.22;;;1.58;;
66639;SDS011;53549;52.164;5.604;2023-03-23T00:55:05;2.13;;;1.67;;
66639;SDS011;53549;52.164;5.604;2023-03-23T00:57:31;1.92;;;1.60;;
66639;SDS011;53549;52.164;5.604;2023-03-23T00:59:57;1.88;;;1.50;;
66639;SDS011;53549;52.164;5.604;2023-03-23T01:02:23;2.40;;;1.52;;
66639;SDS011;53549;52.164;5.604;2023-03-23T01:04:51;2.03;;;1.80;;
66639;SDS011;53549;52.164;5.604;2023-03-23T01:07:19;1.80;;;1.63;;
66639;SDS011;53549;52.164;5.604;2023-03-23T01:09:47;2.92;;;2.08;;
66639;SDS011;53549;52.164;5.604;2023-03-23T01:12:14;2.15;;;1.63;;
66639;SDS011;53549;52.164;5.604;2023-03-23T01:14:40;2.08;;;1.50;;
66639;SDS011;53549;52.164;5.604;2023-03-23T01:17:06;1.58;;;1.40;;
66639;SDS011;53549;52.164;5.604;2023-03-23T01:19:31;1.73;;;1.42;;
66639;SDS011;53549;52.164;5.604;2023-03-23T01:21:57;2.38;;;1.70;;
66639;SDS011;53549;52.164;5.604;2023-03-23T01:24:23;2.08;;;1.60;;
66639;SDS011;53549;52.164;5.604;2023-03-23T01:26:49;2.13;;;1.55;;
66639;SDS011;53549;52.164;5.604;2023-03-23T01:29:14;2.00;;;1.50;;
66639;SDS011;53549;52.164;5.604;2023-03-23T01:31:41;2.47;;;1.70;;
66639;SDS011;53549;52.164;5.604;2023-03-23T01:34:08;1.52;;;1.42;;
66639;SDS011;53549;52.164;5.604;2023-03-23T01:36:35;2.15;;;1.60;;
66639;SDS011;53549;52.164;5.604;2023-03-23T01:39:04;1.70;;;1.50;;
66639;SDS011;53549;52.164;5.604;2023-03-23T01:41:30;1.50;;;1.40;;
66639;SDS011;53549;52.164;5.604;2023-03-23T01:43:57;2.67;;;1.65;;
66639;SDS011;53549;52.164;5.604;2023-03-23T01:46:37;1.80;;;1.55;;
66639;SDS011;53549;52.164;5.604;2023-03-23T01:49:08;2.25;;;1.92;;
66639;SDS011;53549;52.164;5.604;2023-03-23T01:51:40;1.70;;;1.60;;
66639;SDS011;53549;52.164;5.604;2023-03-23T01:54:14;1.75;;;1.63;;
66639;SDS011;53549;52.164;5.604;2023-03-23T01:56:48;2.20;;;1.60;;
66639;SDS011;53549;52.164;5.604;2023-03-23T01:59:17;1.92;;;1.70;;
66639;SDS011;53549;52.164;5.604;2023-03-23T02:01:42;2.30;;;1.40;;
66639;SDS011;53549;52.164;5.604;2023-03-23T02:04:10;1.88;;;1.50;;
66639;SDS011;53549;52.164;5.604;2023-03-23T02:06:37;1.50;;;1.40;;
66639;SDS011;53549;52.164;5.604;2023-03-23T02:09:04;2.65;;;1.52;;
66639;SDS011;53549;52.164;5.604;2023-03-23T02:11:32;2.00;;;1.80;;
66639;SDS011;53549;52.164;5.604;2023-03-23T02:13:58;1.95;;;1.55;;
66639;SDS011;53549;52.164;5.604;2023-03-23T02:19:16;1.67;;;1.50;;
66639;SDS011;53549;52.164;5.604;2023-03-23T02:22:04;1.58;;;1.40;;
66639;SDS011;53549;52.164;5.604;2023-03-23T02:27:42;2.25;;;1.63;;
66639;SDS011;53549;52.164;5.604;2023-03-23T02:36:23;1.48;;;1.38;;
66639;SDS011;53549;52.164;5.604;2023-03-23T02:41:45;1.85;;;1.33;;
66639;SDS011;53549;52.164;5.604;2023-03-23T02:44:14;1.73;;;1.40;;
66639;SDS011;53549;52.164;5.604;2023-03-23T02:46:40;2.25;;;1.52;;
66639;SDS011;53549;52.164;5.604;2023-03-23T02:49:07;1.80;;;1.42;;
66639;SDS011;53549;52.164;5.604;2023-03-23T02:51:34;1.55;;;1.45;;
66639;SDS011;53549;52.164;5.604;2023-03-23T02:54:00;1.90;;;1.42;;
66639;SDS011;53549;52.164;5.604;2023-03-23T02:56:26;1.60;;;1.40;;
66639;SDS011;53549;52.164;5.604;2023-03-23T02:58:52;1.63;;;1.23;;
66639;SDS011;53549;52.164;5.604;2023-03-23T03:03:51;1.92;;;1.40;;
66639;SDS011;53549;52.164;5.604;2023-03-23T03:06:22;2.03;;;1.40;;
66639;SDS011;53549;52.164;5.604;2023-03-23T03:09:14;1.38;;;1.13;;
66639;SDS011;53549;52.164;5.604;2023-03-23T03:11:48;1.88;;;1.50;;
66639;SDS011;53549;52.164;5.604;2023-03-23T03:14:23;1.17;;;1.10;;
66639;SDS011;53549;52.164;5.604;2023-03-23T03:19:25;1.40;;;1.30;;
66639;SDS011;53549;52.164;5.604;2023-03-23T03:21:54;1.67;;;1.27;;
66639;SDS011;53549;52.164;5.604;2023-03-23T03:24:24;1.38;;;1.27;;
66639;SDS011;53549;52.164;5.604;2023-03-23T03:26:53;1.55;;;1.00;;
66639;SDS011;53549;52.164;5.604;2023-03-23T03:29:25;2.15;;;1.52;;
66639;SDS011;53549;52.164;5.604;2023-03-23T03:31:54;1.30;;;1.20;;
66639;SDS011;53549;52.164;5.604;2023-03-23T03:34:20;1.40;;;1.30;;
66639;SDS011;53549;52.164;5.604;2023-03-23T03:36:49;2.10;;;1.40;;
66639;SDS011;53549;52.164;5.604;2023-03-23T03:39:16;1.50;;;1.40;;
66639;SDS011;53549;52.164;5.604;2023-03-23T03:41:42;1.38;;;1.27;;
66639;SDS011;53549;52.164;5.604;2023-03-23T03:44:09;1.70;;;1.42;;
66639;SDS011;53549;52.164;5.604;2023-03-23T03:46:36;1.40;;;1.30;;
66639;SDS011;53549;52.164;5.604;2023-03-23T03:49:02;1.13;;;1.08;;
66639;SDS011;53549;52.164;5.604;2023-03-23T03:51:29;1.50;;;1.20;;
66639;SDS011;53549;52.164;5.604;2023-03-23T03:53:55;1.42;;;1.08;;
66639;SDS011;53549;52.164;5.604;2023-03-23T03:56:22;1.15;;;1.05;;
66639;SDS011;53549;52.164;5.604;2023-03-23T03:58:49;1.25;;;1.10;;
66639;SDS011;53549;52.164;5.604;2023-03-23T04:01:17;1.35;;;1.23;;
66639;SDS011;53549;52.164;5.604;2023-03-23T04:03:45;1.30;;;1.20;;
66639;SDS011;53549;52.164;5.604;2023-03-23T04:06:11;2.00;;;1.27;;
66639;SDS011;53549;52.164;5.604;2023-03-23T04:08:39;1.20;;;1.10;;
66639;SDS011;53549;52.164;5.604;2023-03-23T04:11:06;1.17;;;1.08;;
66639;SDS011;53549;52.164;5.604;2023-03-23T04:13:36;2.20;;;1.20;;
66639;SDS011;53549;52.164;5.604;2023-03-23T04:16:01;1.15;;;1.00;;
66639;SDS011;53549;52.164;5.604;2023-03-23T04:18:27;1.20;;;1.10;;
66639;SDS011;53549;52.164;5.604;2023-03-23T04:20:53;1.15;;;1.05;;
66639;SDS011;53549;52.164;5.604;2023-03-23T04:23:19;1.50;;;1.10;;
66639;SDS011;53549;52.164;5.604;2023-03-23T04:25:47;1.20;;;1.10;;
66639;SDS011;53549;52.164;5.604;2023-03-23T04:28:13;1.85;;;1.20;;
66639;SDS011;53549;52.164;5.604;2023-03-23T04:30:41;1.00;;;0.90;;
66639;SDS011;53549;52.164;5.604;2023-03-23T04:33:08;1.55;;;1.30;;
66639;SDS011;53549;52.164;5.604;2023-03-23T04:35:34;1.35;;;1.10;;
66639;SDS011;53549;52.164;5.604;2023-03-23T04:38:01;1.23;;;1.10;;
66639;SDS011;53549;52.164;5.604;2023-03-23T04:40:26;1.30;;;1.20;;
66639;SDS011;53549;52.164;5.604;2023-03-23T04:42:51;1.10;;;1.10;;
66639;SDS011;53549;52.164;5.604;2023-03-23T04:45:23;0.93;;;0.90;;
66639;SDS011;53549;52.164;5.604;2023-03-23T04:47:50;1.17;;;1.00;;
66639;SDS011;53549;52.164;5.604;2023-03-23T04:50:22;1.17;;;1.02;;
66639;SDS011;53549;52.164;5.604;2023-03-23T04:52:52;1.13;;;1.05;;
66639;SDS011;53549;52.164;5.604;2023-03-23T04:55:19;1.20;;;1.10;;
66639;SDS011;53549;52.164;5.604;2023-03-23T04:57:45;0.82;;;0.82;;
66639;SDS011;53549;52.164;5.604;2023-03-23T05:00:11;1.40;;;1.10;;
66639;SDS011;53549;52.164;5.604;2023-03-23T05:02:40;1.58;;;1.17;;
66639;SDS011;53549;52.164;5.604;2023-03-23T05:05:06;1.05;;;0.95;;
66639;SDS011;53549;52.164;5.604;2023-03-23T05:07:33;1.10;;;1.00;;
66639;SDS011;53549;52.164;5.604;2023-03-23T05:10:01;1.75;;;1.30;;
66639;SDS011;53549;52.164;5.604;2023-03-23T05:12:28;1.10;;;1.00;;
66639;SDS011;53549;52.164;5.604;2023-03-23T05:14:54;0.85;;;0.85;;
66639;SDS011;53549;52.164;5.604;2023-03-23T05:17:20;0.90;;;0.90;;
66639;SDS011;53549;52.164;5.604;2023-03-23T05:19:45;1.23;;;1.10;;
66639;SDS011;53549;52.164;5.604;2023-03-23T05:22:12;1.27;;;1.13;;
66639;SDS011;53549;52.164;5.604;2023-03-23T05:24:39;1.05;;;1.00;;
66639;SDS011;53549;52.164;5.604;2023-03-23T05:27:05;1.23;;;1.10;;
66639;SDS011;53549;52.164;5.604;2023-03-23T05:29:32;1.23;;;0.93;;
66639;SDS011;53549;52.164;5.604;2023-03-23T05:32:00;0.80;;;0.77;;
66639;SDS011;53549;52.164;5.604;2023-03-23T05:34:27;0.80;;;0.80;;
66639;SDS011;53549;52.164;5.604;2023-03-23T05:36:55;1.13;;;0.90;;
66639;SDS011;53549;52.164;5.604;2023-03-23T05:39:23;1.38;;;1.00;;
66639;SDS011;53549;52.164;5.604;2023-03-23T05:41:49;1.05;;;1.00;;
66639;SDS011;53549;52.164;5.604;2023-03-23T05:44:16;0.95;;;0.90;;
66639;SDS011;53549;52.164;5.604;2023-03-23T05:46:42;1.55;;;1.20;;
66639;SDS011;53549;52.164;5.604;2023-03-23T05:49:08;1.10;;;1.00;;
66639;SDS011;53549;52.164;5.604;2023-03-23T05:51:34;1.58;;;1.17;;
66639;SDS011;53549;52.164;5.604;2023-03-23T05:53:59;1.35;;;1.20;;
66639;SDS011;53549;52.164;5.604;2023-03-23T05:56:25;1.20;;;1.10;;
66639;SDS011;53549;52.164;5.604;2023-03-23T05:58:50;1.40;;;0.98;;
66639;SDS011;53549;52.164;5.604;2023-03-23T06:01:16;0.98;;;0.90;;
66639;SDS011;53549;52.164;5.604;2023-03-23T06:03:42;1.17;;;1.08;;
66639;SDS011;53549;52.164;5.604;2023-03-23T06:06:09;0.90;;;0.90;;
66639;SDS011;53549;52.164;5.604;2023-03-23T06:09:00;0.85;;;0.82;;
66639;SDS011;53549;52.164;5.604;2023-03-23T06:11:28;1.02;;;0.95;;
66639;SDS011;53549;52.164;5.604;2023-03-23T06:13:59;1.48;;;1.00;;
66639;SDS011;53549;52.164;5.604;2023-03-23T06:16:24;0.80;;;0.77;;
66639;SDS011;53549;52.164;5.604;2023-03-23T06:18:53;1.05;;;0.80;;
66639;SDS011;53549;52.164;5.604;2023-03-23T06:21:23;0.88;;;0.70;;
66639;SDS011;53549;52.164;5.604;2023-03-23T06:23:53;0.70;;;0.70;;
66639;SDS011;53549;52.164;5.604;2023-03-23T06:26:26;0.88;;;0.88;;
66639;SDS011;53549;52.164;5.604;2023-03-23T06:28:56;1.00;;;0.90;;
66639;SDS011;53549;52.164;5.604;2023-03-23T06:31:24;1.27;;;1.17;;
66639;SDS011;53549;52.164;5.604;2023-03-23T06:33:50;0.70;;;0.70;;
66639;SDS011;53549;52.164;5.604;2023-03-23T06:36:16;0.68;;;0.68;;
66639;SDS011;53549;52.164;5.604;2023-03-23T06:38:42;1.15;;;0.82;;
66639;SDS011;53549;52.164;5.604;2023-03-23T06:41:09;0.80;;;0.80;;
66639;SDS011;53549;52.164;5.604;2023-03-23T06:43:34;0.82;;;0.82;;
66639;SDS011;53549;52.164;5.604;2023-03-23T06:46:02;0.83;;;0.80;;
66639;SDS011;53549;52.164;5.604;2023-03-23T06:48:28;1.10;;;1.00;;
66639;SDS011;53549;52.164;5.604;2023-03-23T06:50:54;1.27;;;0.77;;
66639;SDS011;53549;52.164;5.604;2023-03-23T06:53:19;0.88;;;0.88;;
66639;SDS011;53549;52.164;5.604;2023-03-23T06:55:47;1.00;;;0.90;;
66639;SDS011;53549;52.164;5.604;2023-03-23T06:58:14;0.77;;;0.77;;
66639;SDS011;53549;52.164;5.604;2023-03-23T07:00:41;1.25;;;1.15;;
66639;SDS011;53549;52.164;5.604;2023-03-23T07:03:08;0.70;;;0.70;;
66639;SDS011;53549;52.164;5.604;2023-03-23T07:05:35;1.00;;;0.85;;
66639;SDS011;53549;52.164;5.604;2023-03-23T07:08:03;1.25;;;0.90;;
66639;SDS011;53549;52.164;5.604;2023-03-23T07:10:28;1.25;;;1.00;;
66639;SDS011;53549;52.164;5.604;2023-03-23T07:12:54;1.17;;;0.90;;
66639;SDS011;53549;52.164;5.604;2023-03-23T07:15:20;0.82;;;0.80;;
66639;SDS011;53549;52.164;5.604;2023-03-23T07:17:46;0.90;;;0.90;;
66639;SDS011;53549;52.164;5.604;2023-03-23T07:20:12;1.02;;;0.70;;
66639;SDS011;53549;52.164;5.604;2023-03-23T07:22:40;0.93;;;0.80;;
66639;SDS011;53549;52.164;5.604;2023-03-23T07:25:06;1.35;;;0.80;;
66639;SDS011;53549;52.164;5.604;2023-03-23T07:27:32;0.98;;;0.82;;
66639;SDS011;53549;52.164;5.604;2023-03-23T07:29:58;3.67;;;0.90;;
66639;SDS011;53549;52.164;5.604;2023-03-23T07:32:25;1.20;;;1.10;;
66639;SDS011;53549;52.164;5.604;2023-03-23T07:34:50;0.90;;;0.90;;
66639;SDS011;53549;52.164;5.604;2023-03-23T07:37:16;1.17;;;1.00;;
66639;SDS011;53549;52.164;5.604;2023-03-23T07:39:44;1.23;;;1.00;;
66639;SDS011;53549;52.164;5.604;2023-03-23T07:42:13;1.95;;;1.10;;
66639;SDS011;53549;52.164;5.604;2023-03-23T07:44:52;1.63;;;1.17;;
66639;SDS011;53549;52.164;5.604;2023-03-23T07:47:17;1.70;;;1.00;;
66639;SDS011;53549;52.164;5.604;2023-03-23T07:49:44;1.90;;;1.20;;
66639;SDS011;53549;52.164;5.604;2023-03-23T07:52:16;1.52;;;1.10;;
66639;SDS011;53549;52.164;5.604;2023-03-23T07:54:42;1.40;;;1.20;;
66639;SDS011;53549;52.164;5.604;2023-03-23T07:57:09;1.45;;;1.25;;
66639;SDS011;53549;52.164;5.604;2023-03-23T07:59:42;2.42;;;1.25;;
66639;SDS011;53549;52.164;5.604;2023-03-23T08:02:15;1.35;;;1.17;;
66639;SDS011;53549;52.164;5.604;2023-03-23T08:04:47;2.05;;;1.08;;
66639;SDS011;53549;52.164;5.604;2023-03-23T08:07:13;1.83;;;0.98;;
66639;SDS011;53549;52.164;5.604;2023-03-23T08:09:42;1.27;;;1.17;;
66639;SDS011;53549;52.164;5.604;2023-03-23T08:12:08;1.30;;;1.20;;
66639;SDS011;53549;52.164;5.604;2023-03-23T08:14:35;1.55;;;1.30;;
66639;SDS011;53549;52.164;5.604;2023-03-23T08:17:04;3.92;;;1.23;;
66639;SDS011;53549;52.164;5.604;2023-03-23T08:19:34;1.40;;;1.20;;
66639;SDS011;53549;52.164;5.604;2023-03-23T08:22:02;2.10;;;1.02;;
66639;SDS011;53549;52.164;5.604;2023-03-23T08:24:28;1.88;;;1.20;;
66639;SDS011;53549;52.164;5.604;2023-03-23T08:26:53;1.73;;;1.13;;
66639;SDS011;53549;52.164;5.604;2023-03-23T08:29:21;2.92;;;1.90;;
66639;SDS011;53549;52.164;5.604;2023-03-23T08:31:47;1.60;;;1.50;;
66639;SDS011;53549;52.164;5.604;2023-03-23T08:34:15;1.98;;;1.45;;
66639;SDS011;53549;52.164;5.604;2023-03-23T08:36:45;2.38;;;2.17;;
66639;SDS011;53549;52.164;5.604;2023-03-23T08:39:14;3.83;;;2.47;;
66639;SDS011;53549;52.164;5.604;2023-03-23T08:41:41;4.72;;;2.25;;
66639;SDS011;53549;52.164;5.604;2023-03-23T08:44:12;2.88;;;2.00;;
66639;SDS011;53549;52.164;5.604;2023-03-23T08:49:12;2.47;;;2.03;;
66639;SDS011;53549;52.164;5.604;2023-03-23T08:51:43;2.63;;;2.03;;
66639;SDS011;53549;52.164;5.604;2023-03-23T08:54:15;2.95;;;2.20;;
66639;SDS011;53549;52.164;5.604;2023-03-23T08:56:51;2.65;;;2.20;;
66639;SDS011;53549;52.164;5.604;2023-03-23T08:59:30;2.55;;;2.20;;
66639;SDS011;53549;52.164;5.604;2023-03-23T09:01:58;4.07;;;2.40;;
66639;SDS011;53549;52.164;5.604;2023-03-23T09:04:32;2.28;;;2.05;;
66639;SDS011;53549;52.164;5.604;2023-03-23T09:06:58;2.40;;;2.15;;
66639;SDS011;53549;52.164;5.604;2023-03-23T09:09:26;2.80;;;2.17;;
66639;SDS011;53549;52.164;5.604;2023-03-23T09:12:08;3.20;;;2.53;;
66639;SDS011;53549;52.164;5.604;2023-03-23T09:14:42;3.35;;;2.42;;
66639;SDS011;53549;52.164;5.604;2023-03-23T09:17:09;3.47;;;2.17;;
66639;SDS011;53549;52.164;5.604;2023-03-23T09:19:36;2.40;;;2.20;;
66639;SDS011;53549;52.164;5.604;2023-03-23T09:22:02;4.15;;;2.30;;
66639;SDS011;53549;52.164;5.604;2023-03-23T09:24:35;3.75;;;2.75;;
66639;SDS011;53549;52.164;5.604;2023-03-23T09:27:06;3.03;;;2.50;;
66639;SDS011;53549;52.164;5.604;2023-03-23T09:29:36;4.43;;;2.22;;
66639;SDS011;53549;52.164;5.604;2023-03-23T09:32:05;4.43;;;2.67;;
66639;SDS011;53549;52.164;5.604;2023-03-23T09:34:34;6.72;;;3.03;;
66639;SDS011;53549;52.164;5.604;2023-03-23T09:37:01;4.60;;;3.28;;
66639;SDS011;53549;52.164;5.604;2023-03-23T09:39:29;4.38;;;3.05;;
66639;SDS011;53549;52.164;5.604;2023-03-23T09:50:16;5.85;;;2.92;;
66639;SDS011;53549;52.164;5.604;2023-03-23T09:52:58;5.70;;;3.22;;
66639;SDS011;53549;52.164;5.604;2023-03-23T09:56:13;6.15;;;3.83;;
66639;SDS011;53549;52.164;5.604;2023-03-23T09:59:04;5.65;;;3.83;;
66639;SDS011;53549;52.164;5.604;2023-03-23T10:02:18;6.40;;;4.15;;
66639;SDS011;53549;52.164;5.604;2023-03-23T10:04:51;6.88;;;4.03;;
66639;SDS011;53549;52.164;5.604;2023-03-23T10:07:22;4.95;;;3.67;;
66639;SDS011;53549;52.164;5.604;2023-03-23T10:09:56;6.22;;;3.83;;
66639;SDS011;53549;52.164;5.604;2023-03-23T10:12:42;6.40;;;4.00;;
66639;SDS011;53549;52.164;5.604;2023-03-23T10:15:19;6.22;;;3.70;;
66639;SDS011;53549;52.164;5.604;2023-03-23T10:17:52;7.40;;;3.70;;
66639;SDS011;53549;52.164;5.604;2023-03-23T10:20:42;6.75;;;4.18;;
66639;SDS011;53549;52.164;5.604;2023-03-23T10:23:43;6.25;;;4.05;;
66639;SDS011;53549;52.164;5.604;2023-03-23T10:29:26;7.50;;;3.65;;
66639;SDS011;53549;52.164;5.604;2023-03-23T10:32:16;7.75;;;3.83;;
66639;SDS011;53549;52.164;5.604;2023-03-23T10:34:58;6.28;;;3.92;;
66639;SDS011;53549;52.164;5.604;2023-03-23T10:37:36;6.72;;;4.38;;
66639;SDS011;53549;52.164;5.604;2023-03-23T10:40:05;6.63;;;3.75;;
66639;SDS011;53549;52.164;5.604;2023-03-23T10:42:41;6.18;;;3.78;;
66639;SDS011;53549;52.164;5.604;2023-03-23T10:45:16;7.85;;;4.10;;
66639;SDS011;53549;52.164;5.604;2023-03-23T10:47:51;6.05;;;3.65;;
66639;SDS011;53549;52.164;5.604;2023-03-23T10:50:23;5.13;;;3.63;;
66639;SDS011;53549;52.164;5.604;2023-03-23T10:52:57;5.25;;;3.58;;
66639;SDS011;53549;52.164;5.604;2023-03-23T10:55:34;6.03;;;3.97;;
66639;SDS011;53549;52.164;5.604;2023-03-23T10:58:09;6.03;;;3.78;;
66639;SDS011;53549;52.164;5.604;2023-03-23T11:00:44;5.00;;;3.20;;
66639;SDS011;53549;52.164;5.604;2023-03-23T11:05:55;4.35;;;2.83;;
66639;SDS011;53549;52.164;5.604;2023-03-23T11:08:36;4.68;;;2.72;;
66639;SDS011;53549;52.164;5.604;2023-03-23T11:11:19;3.90;;;2.83;;
66639;SDS011;53549;52.164;5.604;2023-03-23T11:14:00;4.13;;;3.03;;
66639;SDS011;53549;52.164;5.604;2023-03-23T11:16:28;4.30;;;3.58;;
66639;SDS011;53549;52.164;5.604;2023-03-23T11:21:36;4.97;;;3.40;;
66639;SDS011;53549;52.164;5.604;2023-03-23T11:24:03;5.28;;;3.47;;
66639;SDS011;53549;52.164;5.604;2023-03-23T11:26:30;6.43;;;3.22;;
66639;SDS011;53549;52.164;5.604;2023-03-23T11:34:35;5.25;;;3.20;;
66639;SDS011;53549;52.164;5.604;2023-03-23T11:42:47;5.78;;;3.95;;
66639;SDS011;53549;52.164;5.604;2023-03-23T11:45:20;6.75;;;4.10;;
66639;SDS011;53549;52.164;5.604;2023-03-23T11:50:52;5.20;;;3.78;;
66639;SDS011;53549;52.164;5.604;2023-03-23T11:53:43;6.10;;;4.18;;
66639;SDS011;53549;52.164;5.604;2023-03-23T11:58:56;7.53;;;4.85;;
66639;SDS011;53549;52.164;5.604;2023-03-23T12:07:40;8.98;;;4.68;;
66639;SDS011;53549;52.164;5.604;2023-03-23T12:43:51;7.72;;;5.05;;
66639;SDS011;53549;52.164;5.604;2023-03-23T12:52:08;6.75;;;3.72;;
66639;SDS011;53549;52.164;5.604;2023-03-23T12:54:47;4.70;;;3.90;;
66639;SDS011;53549;52.164;5.604;2023-03-23T12:57:24;5.18;;;3.70;;
66639;SDS011;53549;52.164;5.604;2023-03-23T13:02:41;5.30;;;3.88;;
66639;SDS011;53549;52.164;5.604;2023-03-23T13:07:53;4.32;;;3.85;;
66639;SDS011;53549;52.164;5.604;2023-03-23T13:10:33;5.53;;;4.25;;
66639;SDS011;53549;52.164;5.604;2023-03-23T13:13:03;5.35;;;4.40;;
66639;SDS011;53549;52.164;5.604;2023-03-23T13:24:00;7.60;;;4.75;;
66639;SDS011;53549;52.164;5.604;2023-03-23T13:26:10;5.50;;;4.45;;
66639;SDS011;53549;52.164;5.604;2023-03-23T13:31:23;4.97;;;3.85;;
66639;SDS011;53549;52.164;5.604;2023-03-23T13:36:56;5.57;;;4.30;;
66639;SDS011;53549;52.164;5.604;2023-03-23T13:39:25;5.00;;;4.47;;
66639;SDS011;53549;52.164;5.604;2023-03-23T13:52:36;5.00;;;4.25;;
66639;SDS011;53549;52.164;5.604;2023-03-23T14:11:20;5.72;;;4.10;;
66639;SDS011;53549;52.164;5.604;2023-03-23T14:16:41;5.50;;;4.18;;
66639;SDS011;53549;52.164;5.604;2023-03-23T14:21:53;5.38;;;4.43;;
66639;SDS011;53549;52.164;5.604;2023-03-23T14:24:25;4.50;;;3.67;;
66639;SDS011;53549;52.164;5.604;2023-03-23T14:26:53;4.00;;;3.60;;
66639;SDS011;53549;52.164;5.604;2023-03-23T14:29:27;5.07;;;3.75;;
66639;SDS011;53549;52.164;5.604;2023-03-23T14:31:56;4.38;;;3.88;;
66639;SDS011;53549;52.164;5.604;2023-03-23T14:34:24;5.03;;;3.60;;
66639;SDS011;53549;52.164;5.604;2023-03-23T14:36:54;5.30;;;4.25;;
66639;SDS011;53549;52.164;5.604;2023-03-23T14:39:25;4.53;;;3.80;;
66639;SDS011;53549;52.164;5.604;2023-03-23T14:41:54;4.30;;;3.90;;
66639;SDS011;53549;52.164;5.604;2023-03-23T14:44:22;4.43;;;4.03;;
66639;SDS011;53549;52.164;5.604;2023-03-23T14:49:19;5.75;;;4.85;;
66639;SDS011;53549;52.164;5.604;2023-03-23T14:51:50;8.27;;;6.53;;
66639;SDS011;53549;52.164;5.604;2023-03-23T14:54:35;7.70;;;6.38;;
66639;SDS011;53549;52.164;5.604;2023-03-23T14:57:10;8.30;;;7.03;;
66639;SDS011;53549;52.164;5.604;2023-03-23T14:59:41;9.05;;;7.03;;
66639;SDS011;53549;52.164;5.604;2023-03-23T15:02:11;8.18;;;6.90;;
66639;SDS011;53549;52.164;5.604;2023-03-23T15:04:42;8.40;;;7.13;;
66639;SDS011;53549;52.164;5.604;2023-03-23T15:07:10;8.40;;;7.25;;
66639;SDS011;53549;52.164;5.604;2023-03-23T15:09:38;8.50;;;7.30;;
66639;SDS011;53549;52.164;5.604;2023-03-23T15:12:05;7.10;;;6.28;;
66639;SDS011;53549;52.164;5.604;2023-03-23T15:14:42;7.10;;;5.88;;
66639;SDS011;53549;52.164;5.604;2023-03-23T15:17:23;8.27;;;6.50;;
66639;SDS011;53549;52.164;5.604;2023-03-23T15:19:50;7.45;;;6.60;;
66639;SDS011;53549;52.164;5.604;2023-03-23T15:22:26;6.20;;;5.60;;
66639;SDS011;53549;52.164;5.604;2023-03-23T15:27:53;6.65;;;5.72;;
66639;SDS011;53549;52.164;5.604;2023-03-23T15:30:46;9.07;;;6.53;;
66639;SDS011;53549;52.164;5.604;2023-03-23T15:33:17;7.35;;;6.32;;
66639;SDS011;53549;52.164;5.604;2023-03-23T15:35:47;6.72;;;6.05;;
66639;SDS011;53549;52.164;5.604;2023-03-23T15:38:24;9.38;;;5.72;;
66639;SDS011;53549;52.164;5.604;2023-03-23T15:41:21;6.25;;;5.63;;
66639;SDS011;53549;52.164;5.604;2023-03-23T15:43:50;6.38;;;5.25;;
66639;SDS011;53549;52.164;5.604;2023-03-23T15:46:20;7.13;;;5.63;;
66639;SDS011;53549;52.164;5.604;2023-03-23T15:51:20;7.28;;;5.85;;
66639;SDS011;53549;52.164;5.604;2023-03-23T15:53:47;6.88;;;5.80;;
66639;SDS011;53549;52.164;5.604;2023-03-23T15:56:13;7.13;;;5.57;;
66639;SDS011;53549;52.164;5.604;2023-03-23T15:58:39;8.50;;;5.50;;
66639;SDS011;53549;52.164;5.604;2023-03-23T16:01:13;7.57;;;6.07;;
66639;SDS011;53549;52.164;5.604;2023-03-23T16:03:46;5.50;;;5.00;;
66639;SDS011;53549;52.164;5.604;2023-03-23T16:06:20;7.82;;;5.90;;
66639;SDS011;53549;52.164;5.604;2023-03-23T16:08:49;6.47;;;5.65;;
66639;SDS011;53549;52.164;5.604;2023-03-23T16:11:15;9.52;;;6.00;;
66639;SDS011;53549;52.164;5.604;2023-03-23T16:13:43;6.50;;;5.45;;
66639;SDS011;53549;52.164;5.604;2023-03-23T16:16:20;8.43;;;5.75;;
66639;SDS011;53549;52.164;5.604;2023-03-23T16:18:46;6.15;;;5.38;;
66639;SDS011;53549;52.164;5.604;2023-03-23T16:21:13;6.85;;;5.63;;
66639;SDS011;53549;52.164;5.604;2023-03-23T16:23:39;6.60;;;5.55;;
66639;SDS011;53549;52.164;5.604;2023-03-23T16:26:08;6.53;;;5.22;;
66639;SDS011;53549;52.164;5.604;2023-03-23T16:28:35;6.85;;;5.53;;
66639;SDS011;53549;52.164;5.604;2023-03-23T16:31:02;5.75;;;5.15;;
66639;SDS011;53549;52.164;5.604;2023-03-23T16:33:27;6.00;;;5.40;;
66639;SDS011;53549;52.164;5.604;2023-03-23T16:35:53;6.68;;;5.40;;
66639;SDS011;53549;52.164;5.604;2023-03-23T16:38:19;7.22;;;5.55;;
66639;SDS011;53549;52.164;5.604;2023-03-23T16:40:45;7.28;;;5.82;;
66639;SDS011;53549;52.164;5.604;2023-03-23T16:43:11;6.10;;;5.03;;
66639;SDS011;53549;52.164;5.604;2023-03-23T16:45:38;6.75;;;5.60;;
66639;SDS011;53549;52.164;5.604;2023-03-23T16:48:05;7.65;;;6.05;;
66639;SDS011;53549;52.164;5.604;2023-03-23T16:50:31;7.93;;;5.63;;
66639;SDS011;53549;52.164;5.604;2023-03-23T16:52:56;5.88;;;5.03;;
66639;SDS011;53549;52.164;5.604;2023-03-23T16:55:22;6.05;;;4.93;;
66639;SDS011;53549;52.164;5.604;2023-03-23T16:57:51;6.72;;;4.80;;
66639;SDS011;53549;52.164;5.604;2023-03-23T17:00:17;6.45;;;4.80;;
66639;SDS011;53549;52.164;5.604;2023-03-23T17:02:47;5.10;;;4.60;;
66639;SDS011;53549;52.164;5.604;2023-03-23T17:05:15;5.38;;;4.85;;
66639;SDS011;53549;52.164;5.604;2023-03-23T17:07:43;6.55;;;4.88;;
66639;SDS011;53549;52.164;5.604;2023-03-23T17:10:09;5.13;;;4.57;;
66639;SDS011;53549;52.164;5.604;2023-03-23T17:12:35;5.22;;;4.57;;
66639;SDS011;53549;52.164;5.604;2023-03-23T17:15:01;5.95;;;5.20;;
66639;SDS011;53549;52.164;5.604;2023-03-23T17:17:27;5.03;;;4.35;;
66639;SDS011;53549;52.164;5.604;2023-03-23T17:19:53;5.25;;;4.75;;
66639;SDS011;53549;52.164;5.604;2023-03-23T17:22:19;5.30;;;4.63;;
66639;SDS011;53549;52.164;5.604;2023-03-23T17:24:45;6.72;;;5.10;;
66639;SDS011;53549;52.164;5.604;2023-03-23T17:27:11;5.10;;;4.60;;
66639;SDS011;53549;52.164;5.604;2023-03-23T17:29:38;5.70;;;4.75;;
66639;SDS011;53549;52.164;5.604;2023-03-23T17:32:03;6.10;;;4.63;;
66639;SDS011;53549;52.164;5.604;2023-03-23T17:34:31;5.53;;;4.80;;
66639;SDS011;53549;52.164;5.604;2023-03-23T17:36:56;5.22;;;4.47;;
66639;SDS011;53549;52.164;5.604;2023-03-23T17:39:22;6.00;;;4.65;;
66639;SDS011;53549;52.164;5.604;2023-03-23T17:41:48;5.60;;;4.43;;
66639;SDS011;53549;52.164;5.604;2023-03-23T17:44:13;4.75;;;4.25;;